sensor_id;sensor_type;location;lat;lon;timestamp;temperature;humidity
47338;DHT22;33069;51.970;5.892;2023-03-08T00:00:56;0.30;87.80
47338;DHT22;33069;51.970;5.892;2023-03-08T00:03:22;0.30;87.70
47338;DHT22;33069;51.970;5.892;2023-03-08T00:05:48;0.30;87.70
47338;DHT22;33069;51.970;5.892;2023-03-08T00:08:15;0.40;87.80
47338;DHT22;33069;51.970;5.892;2023-03-08T00:10:41;0.30;87.70
47338;DHT22;33069;51.970;5.892;2023-03-08T00:13:07;0.20;87.60
47338;DHT22;33069;51.970;5.892;2023-03-08T00:15:32;0.10;87.50
47338;DHT22;33069;51.970;5.892;2023-03-08T00:17:58;0.00;87.50
47338;DHT22;33069;51.970;5.892;2023-03-08T00:20:24;-3276.70;87.50
47338;DHT22;33069;51.970;5.892;2023-03-08T00:22:50;-3276.70;87.60
47338;DHT22;33069;51.970;5.892;2023-03-08T00:25:15;0.00;87.80
47338;DHT22;33069;51.970;5.892;2023-03-08T00:27:41;-3276.60;87.80
47338;DHT22;33069;51.970;5.892;2023-03-08T00:30:07;0.10;88.10
47338;DHT22;33069;51.970;5.892;2023-03-08T00:32:33;0.30;88.30
47338;DHT22;33069;51.970;5.892;2023-03-08T00:34:59;0.40;88.30
47338;DHT22;33069;51.970;5.892;2023-03-08T00:37:25;0.30;88.00
47338;DHT22;33069;51.970;5.892;2023-03-08T00:39:51;0.30;87.80
47338;DHT22;33069;51.970;5.892;2023-03-08T00:42:18;0.10;87.50
47338;DHT22;33069;51.970;5.892;2023-03-08T00:44:44;0.10;87.50
47338;DHT22;33069;51.970;5.892;2023-03-08T00:47:10;-3276.70;87.30
47338;DHT22;33069;51.970;5.892;2023-03-08T00:49:35;-3276.70;87.50
47338;DHT22;33069;51.970;5.892;2023-03-08T00:52:01;-3276.60;87.60
47338;DHT22;33069;51.970;5.892;2023-03-08T00:54:28;-3276.60;87.70
47338;DHT22;33069;51.970;5.892;2023-03-08T00:56:54;-3276.50;87.80
47338;DHT22;33069;51.970;5.892;2023-03-08T00:59:20;0.00;88.10
47338;DHT22;33069;51.970;5.892;2023-03-08T01:01:46;0.40;88.40
47338;DHT22;33069;51.970;5.892;2023-03-08T01:04:12;0.40;88.30
47338;DHT22;33069;51.970;5.892;2023-03-08T01:06:38;0.20;88.00
47338;DHT22;33069;51.970;5.892;2023-03-08T01:09:04;0.20;87.70
47338;DHT22;33069;51.970;5.892;2023-03-08T01:11:30;0.10;87.60
47338;DHT22;33069;51.970;5.892;2023-03-08T01:13:57;0.00;87.50
47338;DHT22;33069;51.970;5.892;2023-03-08T01:16:27;-3276.70;87.50
47338;DHT22;33069;51.970;5.892;2023-03-08T01:18:53;0.00;87.70
47338;DHT22;33069;51.970;5.892;2023-03-08T01:21:19;0.20;87.90
47338;DHT22;33069;51.970;5.892;2023-03-08T01:23:46;0.00;87.80
47338;DHT22;33069;51.970;5.892;2023-03-08T01:26:14;-3276.70;87.70
47338;DHT22;33069;51.970;5.892;2023-03-08T01:28:40;-3276.70;87.80
47338;DHT22;33069;51.970;5.892;2023-03-08T01:31:10;0.00;88.00
47338;DHT22;33069;51.970;5.892;2023-03-08T01:33:37;0.00;88.10
47338;DHT22;33069;51.970;5.892;2023-03-08T01:36:06;0.10;88.20
47338;DHT22;33069;51.970;5.892;2023-03-08T01:38:32;0.10;88.20
47338;DHT22;33069;51.970;5.892;2023-03-08T01:41:00;0.00;88.20
47338;DHT22;33069;51.970;5.892;2023-03-08T01:43:28;0.00;88.20
47338;DHT22;33069;51.970;5.892;2023-03-08T01:46:13;0.00;88.20
47338;DHT22;33069;51.970;5.892;2023-03-08T01:51:48;-3276.60;88.10
47338;DHT22;33069;51.970;5.892;2023-03-08T01:54:17;-3276.70;88.20
47338;DHT22;33069;51.970;5.892;2023-03-08T01:56:46;-3276.60;88.20
47338;DHT22;33069;51.970;5.892;2023-03-08T01:59:13;0.00;88.40
47338;DHT22;33069;51.970;5.892;2023-03-08T02:01:39;0.10;88.50
47338;DHT22;33069;51.970;5.892;2023-03-08T02:04:06;0.00;88.50
47338;DHT22;33069;51.970;5.892;2023-03-08T02:06:31;0.00;88.50
47338;DHT22;33069;51.970;5.892;2023-03-08T02:08:58;0.00;88.50
47338;DHT22;33069;51.970;5.892;2023-03-08T02:11:28;0.00;88.60
47338;DHT22;33069;51.970;5.892;2023-03-08T02:13:53;0.00;88.80
47338;DHT22;33069;51.970;5.892;2023-03-08T02:16:20;0.00;88.80
47338;DHT22;33069;51.970;5.892;2023-03-08T02:18:56;-3276.70;88.80
47338;DHT22;33069;51.970;5.892;2023-03-08T02:21:22;-3276.60;88.80
47338;DHT22;33069;51.970;5.892;2023-03-08T02:23:48;0.20;89.20
47338;DHT22;33069;51.970;5.892;2023-03-08T02:26:14;0.20;89.20
47338;DHT22;33069;51.970;5.892;2023-03-08T02:28:40;0.20;89.20
47338;DHT22;33069;51.970;5.892;2023-03-08T02:31:06;0.30;89.30
47338;DHT22;33069;51.970;5.892;2023-03-08T02:33:32;0.20;89.30
47338;DHT22;33069;51.970;5.892;2023-03-08T02:36:01;0.10;89.20
47338;DHT22;33069;51.970;5.892;2023-03-08T02:38:27;0.10;89.30
47338;DHT22;33069;51.970;5.892;2023-03-08T02:40:52;0.10;89.30
47338;DHT22;33069;51.970;5.892;2023-03-08T02:43:19;0.10;89.40
47338;DHT22;33069;51.970;5.892;2023-03-08T02:45:44;0.10;89.40
47338;DHT22;33069;51.970;5.892;2023-03-08T02:48:10;0.10;89.40
47338;DHT22;33069;51.970;5.892;2023-03-08T02:50:37;0.20;89.50
47338;DHT22;33069;51.970;5.892;2023-03-08T02:53:03;0.20;89.60
47338;DHT22;33069;51.970;5.892;2023-03-08T02:55:29;0.20;89.60
47338;DHT22;33069;51.970;5.892;2023-03-08T02:57:55;0.10;89.60
47338;DHT22;33069;51.970;5.892;2023-03-08T03:00:21;0.00;89.60
47338;DHT22;33069;51.970;5.892;2023-03-08T03:02:46;0.20;89.70
47338;DHT22;33069;51.970;5.892;2023-03-08T03:05:12;0.30;89.80
47338;DHT22;33069;51.970;5.892;2023-03-08T03:07:40;0.20;89.80
47338;DHT22;33069;51.970;5.892;2023-03-08T03:10:09;0.30;89.80
47338;DHT22;33069;51.970;5.892;2023-03-08T03:12:35;0.50;89.90
47338;DHT22;33069;51.970;5.892;2023-03-08T03:15:02;0.30;89.90
47338;DHT22;33069;51.970;5.892;2023-03-08T03:17:27;0.30;89.90
47338;DHT22;33069;51.970;5.892;2023-03-08T03:19:53;0.40;89.90
47338;DHT22;33069;51.970;5.892;2023-03-08T03:22:19;0.30;89.90
47338;DHT22;33069;51.970;5.892;2023-03-08T03:24:44;0.30;89.90
47338;DHT22;33069;51.970;5.892;2023-03-08T03:27:10;0.50;90.00
47338;DHT22;33069;51.970;5.892;2023-03-08T03:29:36;0.50;90.00
47338;DHT22;33069;51.970;5.892;2023-03-08T03:32:02;0.50;90.00
47338;DHT22;33069;51.970;5.892;2023-03-08T03:34:28;0.60;90.00
47338;DHT22;33069;51.970;5.892;2023-03-08T03:36:54;0.40;90.00
47338;DHT22;33069;51.970;5.892;2023-03-08T03:39:20;0.40;89.90
47338;DHT22;33069;51.970;5.892;2023-03-08T03:41:45;0.50;90.00
47338;DHT22;33069;51.970;5.892;2023-03-08T03:44:11;0.50;90.00
47338;DHT22;33069;51.970;5.892;2023-03-08T03:46:37;0.50;90.00
47338;DHT22;33069;51.970;5.892;2023-03-08T03:49:03;0.50;90.00
47338;DHT22;33069;51.970;5.892;2023-03-08T03:51:28;0.40;90.00
47338;DHT22;33069;51.970;5.892;2023-03-08T03:53:54;0.40;90.00
47338;DHT22;33069;51.970;5.892;2023-03-08T03:56:25;0.40;90.10
47338;DHT22;33069;51.970;5.892;2023-03-08T03:58:51;0.40;90.10
47338;DHT22;33069;51.970;5.892;2023-03-08T04:01:20;0.50;90.10
47338;DHT22;33069;51.970;5.892;2023-03-08T04:03:47;0.40;90.10
47338;DHT22;33069;51.970;5.892;2023-03-08T04:06:16;0.40;90.20
47338;DHT22;33069;51.970;5.892;2023-03-08T04:08:42;0.40;90.20
47338;DHT22;33069;51.970;5.892;2023-03-08T04:11:10;0.40;90.20
47338;DHT22;33069;51.970;5.892;2023-03-08T04:13:36;0.50;90.30
47338;DHT22;33069;51.970;5.892;2023-03-08T04:16:20;0.50;90.30
47338;DHT22;33069;51.970;5.892;2023-03-08T04:18:46;0.40;90.40
47338;DHT22;33069;51.970;5.892;2023-03-08T04:21:12;0.40;90.40
47338;DHT22;33069;51.970;5.892;2023-03-08T04:23:38;0.60;90.40
47338;DHT22;33069;51.970;5.892;2023-03-08T04:26:06;0.50;90.50
47338;DHT22;33069;51.970;5.892;2023-03-08T04:28:32;0.60;90.50
47338;DHT22;33069;51.970;5.892;2023-03-08T04:31:18;0.60;90.50
47338;DHT22;33069;51.970;5.892;2023-03-08T04:33:45;0.60;90.50
47338;DHT22;33069;51.970;5.892;2023-03-08T04:36:11;0.50;90.50
47338;DHT22;33069;51.970;5.892;2023-03-08T04:38:38;0.70;90.60
47338;DHT22;33069;51.970;5.892;2023-03-08T04:41:04;0.70;90.60
47338;DHT22;33069;51.970;5.892;2023-03-08T04:43:39;0.60;90.50
47338;DHT22;33069;51.970;5.892;2023-03-08T04:46:07;0.70;90.60
47338;DHT22;33069;51.970;5.892;2023-03-08T04:48:32;0.50;90.60
47338;DHT22;33069;51.970;5.892;2023-03-08T04:51:00;0.60;90.60
47338;DHT22;33069;51.970;5.892;2023-03-08T04:53:27;0.50;90.60
47338;DHT22;33069;51.970;5.892;2023-03-08T04:55:53;0.50;90.60
47338;DHT22;33069;51.970;5.892;2023-03-08T04:58:19;0.60;90.60
47338;DHT22;33069;51.970;5.892;2023-03-08T05:00:45;0.70;90.60
47338;DHT22;33069;51.970;5.892;2023-03-08T05:03:11;0.60;90.60
47338;DHT22;33069;51.970;5.892;2023-03-08T05:05:47;0.70;90.70
47338;DHT22;33069;51.970;5.892;2023-03-08T05:08:13;0.70;90.70
47338;DHT22;33069;51.970;5.892;2023-03-08T05:10:39;0.70;90.70
47338;DHT22;33069;51.970;5.892;2023-03-08T05:13:05;0.70;90.70
47338;DHT22;33069;51.970;5.892;2023-03-08T05:15:31;0.70;90.70
47338;DHT22;33069;51.970;5.892;2023-03-08T05:17:56;0.70;90.60
47338;DHT22;33069;51.970;5.892;2023-03-08T05:20:22;0.60;90.60
47338;DHT22;33069;51.970;5.892;2023-03-08T05:22:49;0.70;90.60
47338;DHT22;33069;51.970;5.892;2023-03-08T05:25:15;0.70;90.60
47338;DHT22;33069;51.970;5.892;2023-03-08T05:27:40;0.60;90.60
47338;DHT22;33069;51.970;5.892;2023-03-08T05:30:07;0.70;90.60
47338;DHT22;33069;51.970;5.892;2023-03-08T05:32:32;0.70;90.60
47338;DHT22;33069;51.970;5.892;2023-03-08T05:34:58;0.60;90.60
47338;DHT22;33069;51.970;5.892;2023-03-08T05:37:24;0.50;90.50
47338;DHT22;33069;51.970;5.892;2023-03-08T05:39:51;0.50;90.50
47338;DHT22;33069;51.970;5.892;2023-03-08T05:42:17;0.60;90.50
47338;DHT22;33069;51.970;5.892;2023-03-08T05:44:45;0.50;90.50
47338;DHT22;33069;51.970;5.892;2023-03-08T05:47:11;0.70;90.60
47338;DHT22;33069;51.970;5.892;2023-03-08T05:49:36;0.90;90.60
47338;DHT22;33069;51.970;5.892;2023-03-08T05:52:02;0.70;90.60
47338;DHT22;33069;51.970;5.892;2023-03-08T05:54:28;0.70;90.50
47338;DHT22;33069;51.970;5.892;2023-03-08T05:56:54;0.60;90.50
47338;DHT22;33069;51.970;5.892;2023-03-08T05:59:20;0.80;90.50
47338;DHT22;33069;51.970;5.892;2023-03-08T06:01:45;0.80;90.50
47338;DHT22;33069;51.970;5.892;2023-03-08T06:04:11;0.90;90.60
47338;DHT22;33069;51.970;5.892;2023-03-08T06:06:37;0.70;90.50
47338;DHT22;33069;51.970;5.892;2023-03-08T06:09:02;0.80;90.50
47338;DHT22;33069;51.970;5.892;2023-03-08T06:11:28;0.80;90.50
47338;DHT22;33069;51.970;5.892;2023-03-08T06:13:54;0.80;90.40
47338;DHT22;33069;51.970;5.892;2023-03-08T06:16:20;0.80;90.40
47338;DHT22;33069;51.970;5.892;2023-03-08T06:18:46;0.70;90.30
47338;DHT22;33069;51.970;5.892;2023-03-08T06:21:14;0.80;90.30
47338;DHT22;33069;51.970;5.892;2023-03-08T06:23:40;0.80;90.30
47338;DHT22;33069;51.970;5.892;2023-03-08T06:26:07;0.50;90.20
47338;DHT22;33069;51.970;5.892;2023-03-08T06:28:33;0.60;90.20
47338;DHT22;33069;51.970;5.892;2023-03-08T06:30:59;1.00;90.30
47338;DHT22;33069;51.970;5.892;2023-03-08T06:33:29;0.70;90.20
47338;DHT22;33069;51.970;5.892;2023-03-08T06:35:56;0.70;90.20
47338;DHT22;33069;51.970;5.892;2023-03-08T06:38:23;0.80;90.20
47338;DHT22;33069;51.970;5.892;2023-03-08T06:40:49;0.80;90.20
47338;DHT22;33069;51.970;5.892;2023-03-08T06:43:14;0.70;90.20
47338;DHT22;33069;51.970;5.892;2023-03-08T06:45:40;0.60;90.10
47338;DHT22;33069;51.970;5.892;2023-03-08T06:48:06;0.70;90.20
47338;DHT22;33069;51.970;5.892;2023-03-08T06:50:33;0.70;90.20
47338;DHT22;33069;51.970;5.892;2023-03-08T06:52:59;0.70;90.20
47338;DHT22;33069;51.970;5.892;2023-03-08T06:55:25;0.60;90.20
47338;DHT22;33069;51.970;5.892;2023-03-08T06:57:50;0.70;90.20
47338;DHT22;33069;51.970;5.892;2023-03-08T07:00:17;0.80;90.20
47338;DHT22;33069;51.970;5.892;2023-03-08T07:02:43;0.80;90.30
47338;DHT22;33069;51.970;5.892;2023-03-08T07:05:09;0.70;90.30
47338;DHT22;33069;51.970;5.892;2023-03-08T07:07:35;0.70;90.20
47338;DHT22;33069;51.970;5.892;2023-03-08T07:10:02;0.70;90.20
47338;DHT22;33069;51.970;5.892;2023-03-08T07:12:28;0.80;90.30
47338;DHT22;33069;51.970;5.892;2023-03-08T07:14:57;1.00;90.30
47338;DHT22;33069;51.970;5.892;2023-03-08T07:17:23;0.90;90.30
47338;DHT22;33069;51.970;5.892;2023-03-08T07:19:49;0.90;90.30
47338;DHT22;33069;51.970;5.892;2023-03-08T07:22:16;0.90;90.20
47338;DHT22;33069;51.970;5.892;2023-03-08T07:24:41;1.10;90.30
47338;DHT22;33069;51.970;5.892;2023-03-08T07:27:07;0.90;90.20
47338;DHT22;33069;51.970;5.892;2023-03-08T07:29:33;0.80;90.10
47338;DHT22;33069;51.970;5.892;2023-03-08T07:31:58;0.90;90.10
47338;DHT22;33069;51.970;5.892;2023-03-08T07:34:24;0.90;90.10
47338;DHT22;33069;51.970;5.892;2023-03-08T07:36:50;1.10;90.20
47338;DHT22;33069;51.970;5.892;2023-03-08T07:39:16;1.20;90.20
47338;DHT22;33069;51.970;5.892;2023-03-08T07:41:42;1.20;90.10
47338;DHT22;33069;51.970;5.892;2023-03-08T07:44:07;1.20;90.10
47338;DHT22;33069;51.970;5.892;2023-03-08T07:46:33;1.40;90.10
47338;DHT22;33069;51.970;5.892;2023-03-08T07:48:59;1.40;90.00
47338;DHT22;33069;51.970;5.892;2023-03-08T07:51:25;1.40;89.90
47338;DHT22;33069;51.970;5.892;2023-03-08T07:53:52;1.50;89.80
47338;DHT22;33069;51.970;5.892;2023-03-08T07:56:17;1.50;89.80
47338;DHT22;33069;51.970;5.892;2023-03-08T07:58:43;1.20;89.60
47338;DHT22;33069;51.970;5.892;2023-03-08T08:01:10;1.20;89.60
47338;DHT22;33069;51.970;5.892;2023-03-08T08:03:36;1.30;89.60
47338;DHT22;33069;51.970;5.892;2023-03-08T08:06:04;1.40;89.70
47338;DHT22;33069;51.970;5.892;2023-03-08T08:08:30;1.40;89.60
47338;DHT22;33069;51.970;5.892;2023-03-08T08:10:56;1.60;89.70
47338;DHT22;33069;51.970;5.892;2023-03-08T08:13:22;1.60;89.70
47338;DHT22;33069;51.970;5.892;2023-03-08T08:16:00;1.60;89.60
47338;DHT22;33069;51.970;5.892;2023-03-08T08:18:26;1.50;89.60
47338;DHT22;33069;51.970;5.892;2023-03-08T08:21:02;1.60;89.70
47338;DHT22;33069;51.970;5.892;2023-03-08T08:23:28;1.60;89.60
47338;DHT22;33069;51.970;5.892;2023-03-08T08:25:54;1.60;89.60
47338;DHT22;33069;51.970;5.892;2023-03-08T08:28:21;1.70;89.70
47338;DHT22;33069;51.970;5.892;2023-03-08T08:31:01;1.70;89.70
47338;DHT22;33069;51.970;5.892;2023-03-08T08:33:28;1.70;89.60
47338;DHT22;33069;51.970;5.892;2023-03-08T08:35:54;1.80;89.70
47338;DHT22;33069;51.970;5.892;2023-03-08T08:38:20;2.00;89.70
47338;DHT22;33069;51.970;5.892;2023-03-08T08:40:46;2.00;89.70
47338;DHT22;33069;51.970;5.892;2023-03-08T08:43:12;2.00;89.60
47338;DHT22;33069;51.970;5.892;2023-03-08T08:45:45;2.10;89.60
47338;DHT22;33069;51.970;5.892;2023-03-08T08:48:12;2.30;89.60
47338;DHT22;33069;51.970;5.892;2023-03-08T08:50:39;2.40;89.50
47338;DHT22;33069;51.970;5.892;2023-03-08T08:53:06;2.20;89.30
47338;DHT22;33069;51.970;5.892;2023-03-08T08:55:32;2.40;89.20
47338;DHT22;33069;51.970;5.892;2023-03-08T08:57:57;2.30;89.00
47338;DHT22;33069;51.970;5.892;2023-03-08T09:00:23;2.40;88.90
47338;DHT22;33069;51.970;5.892;2023-03-08T09:02:49;2.40;88.70
47338;DHT22;33069;51.970;5.892;2023-03-08T09:05:15;2.70;88.60
47338;DHT22;33069;51.970;5.892;2023-03-08T09:07:40;2.70;88.30
47338;DHT22;33069;51.970;5.892;2023-03-08T09:10:07;2.60;87.90
47338;DHT22;33069;51.970;5.892;2023-03-08T09:12:33;2.40;87.40
47338;DHT22;33069;51.970;5.892;2023-03-08T09:14:59;2.60;87.40
47338;DHT22;33069;51.970;5.892;2023-03-08T09:17:25;2.60;87.20
47338;DHT22;33069;51.970;5.892;2023-03-08T09:19:50;2.60;86.90
47338;DHT22;33069;51.970;5.892;2023-03-08T09:22:16;2.50;86.70
47338;DHT22;33069;51.970;5.892;2023-03-08T09:24:43;2.50;86.70
47338;DHT22;33069;51.970;5.892;2023-03-08T09:27:11;2.60;86.60
47338;DHT22;33069;51.970;5.892;2023-03-08T09:29:37;2.50;86.30
47338;DHT22;33069;51.970;5.892;2023-03-08T09:32:04;2.70;86.30
47338;DHT22;33069;51.970;5.892;2023-03-08T09:34:30;2.70;86.10
47338;DHT22;33069;51.970;5.892;2023-03-08T09:36:56;2.80;85.70
47338;DHT22;33069;51.970;5.892;2023-03-08T09:39:22;2.60;85.00
47338;DHT22;33069;51.970;5.892;2023-03-08T09:41:57;2.70;84.80
47338;DHT22;33069;51.970;5.892;2023-03-08T09:47:43;2.70;83.90
47338;DHT22;33069;51.970;5.892;2023-03-08T09:55:23;2.80;82.80
47338;DHT22;33069;51.970;5.892;2023-03-08T10:00:44;3.10;81.80
47338;DHT22;33069;51.970;5.892;2023-03-08T10:11:36;3.30;80.60
47338;DHT22;33069;51.970;5.892;2023-03-08T10:14:34;3.30;80.60
47338;DHT22;33069;51.970;5.892;2023-03-08T10:17:04;3.60;80.80
47338;DHT22;33069;51.970;5.892;2023-03-08T10:19:41;3.50;79.80
47338;DHT22;33069;51.970;5.892;2023-03-08T10:22:17;3.60;79.80
47338;DHT22;33069;51.970;5.892;2023-03-08T10:25:32;3.40;79.20
47338;DHT22;33069;51.970;5.892;2023-03-08T10:27:38;3.70;79.60
47338;DHT22;33069;51.970;5.892;2023-03-08T10:30:13;4.00;79.00
47338;DHT22;33069;51.970;5.892;2023-03-08T10:32:44;3.70;78.70
47338;DHT22;33069;51.970;5.892;2023-03-08T10:35:10;4.00;78.80
47338;DHT22;33069;51.970;5.892;2023-03-08T10:37:36;3.80;78.00
47338;DHT22;33069;51.970;5.892;2023-03-08T10:40:07;3.80;77.90
47338;DHT22;33069;51.970;5.892;2023-03-08T10:42:34;3.50;78.30
47338;DHT22;33069;51.970;5.892;2023-03-08T10:45:22;3.50;79.00
47338;DHT22;33069;51.970;5.892;2023-03-08T10:47:57;3.50;79.50
47338;DHT22;33069;51.970;5.892;2023-03-08T10:50:27;3.90;79.90
47338;DHT22;33069;51.970;5.892;2023-03-08T10:52:53;3.90;78.60
47338;DHT22;33069;51.970;5.892;2023-03-08T10:55:25;3.90;78.40
47338;DHT22;33069;51.970;5.892;2023-03-08T10:57:54;3.70;77.80
47338;DHT22;33069;51.970;5.892;2023-03-08T11:02:48;3.80;78.30
47338;DHT22;33069;51.970;5.892;2023-03-08T11:05:23;4.10;78.30
47338;DHT22;33069;51.970;5.892;2023-03-08T11:07:56;4.20;77.20
47338;DHT22;33069;51.970;5.892;2023-03-08T11:10:25;4.20;76.10
47338;DHT22;33069;51.970;5.892;2023-03-08T11:13:20;4.50;76.60
47338;DHT22;33069;51.970;5.892;2023-03-08T11:21:12;4.50;74.50
47338;DHT22;33069;51.970;5.892;2023-03-08T11:23:48;4.60;74.70
47338;DHT22;33069;51.970;5.892;2023-03-08T11:26:23;4.60;74.60
47338;DHT22;33069;51.970;5.892;2023-03-08T11:29:01;4.60;74.40
47338;DHT22;33069;51.970;5.892;2023-03-08T11:31:55;4.30;73.80
47338;DHT22;33069;51.970;5.892;2023-03-08T11:37:20;4.00;74.10
47338;DHT22;33069;51.970;5.892;2023-03-08T11:53:44;4.30;74.60
47338;DHT22;33069;51.970;5.892;2023-03-08T12:01:36;4.20;74.40
47338;DHT22;33069;51.970;5.892;2023-03-08T12:04:10;4.20;75.30
47338;DHT22;33069;51.970;5.892;2023-03-08T12:06:40;3.90;75.00
47338;DHT22;33069;51.970;5.892;2023-03-08T12:09:24;4.20;74.70
47338;DHT22;33069;51.970;5.892;2023-03-08T12:14:28;4.20;73.60
47338;DHT22;33069;51.970;5.892;2023-03-08T12:17:16;4.10;74.20
47338;DHT22;33069;51.970;5.892;2023-03-08T12:19:48;4.00;74.20
47338;DHT22;33069;51.970;5.892;2023-03-08T12:25:11;4.20;73.90
47338;DHT22;33069;51.970;5.892;2023-03-08T12:27:56;4.20;75.10
47338;DHT22;33069;51.970;5.892;2023-03-08T12:30:42;4.20;73.60
47338;DHT22;33069;51.970;5.892;2023-03-08T12:33:14;4.10;73.40
47338;DHT22;33069;51.970;5.892;2023-03-08T12:35:55;4.00;73.00
47338;DHT22;33069;51.970;5.892;2023-03-08T12:40:48;3.80;73.40
47338;DHT22;33069;51.970;5.892;2023-03-08T12:45:45;4.20;74.80
47338;DHT22;33069;51.970;5.892;2023-03-08T12:48:18;4.30;74.20
47338;DHT22;33069;51.970;5.892;2023-03-08T12:53:40;4.40;73.00
47338;DHT22;33069;51.970;5.892;2023-03-08T13:01:33;4.40;73.10
47338;DHT22;33069;51.970;5.892;2023-03-08T13:04:01;4.20;72.80
47338;DHT22;33069;51.970;5.892;2023-03-08T13:09:28;3.90;72.80
47338;DHT22;33069;51.970;5.892;2023-03-08T13:15:07;4.10;73.40
47338;DHT22;33069;51.970;5.892;2023-03-08T13:18:03;4.20;73.70
47338;DHT22;33069;51.970;5.892;2023-03-08T13:23:17;4.50;71.70
47338;DHT22;33069;51.970;5.892;2023-03-08T13:28:44;3.90;71.20
47338;DHT22;33069;51.970;5.892;2023-03-08T13:31:18;3.80;72.60
47338;DHT22;33069;51.970;5.892;2023-03-08T13:36:23;4.20;72.70
47338;DHT22;33069;51.970;5.892;2023-03-08T13:39:03;4.00;73.20
47338;DHT22;33069;51.970;5.892;2023-03-08T13:46:38;4.10;72.30
47338;DHT22;33069;51.970;5.892;2023-03-08T13:49:16;4.10;72.70
47338;DHT22;33069;51.970;5.892;2023-03-08T13:51:46;4.20;72.20
47338;DHT22;33069;51.970;5.892;2023-03-08T13:54:28;4.10;71.50
47338;DHT22;33069;51.970;5.892;2023-03-08T13:56:58;4.10;71.60
47338;DHT22;33069;51.970;5.892;2023-03-08T13:59:25;4.00;72.50
47338;DHT22;33069;51.970;5.892;2023-03-08T14:01:52;3.90;73.00
47338;DHT22;33069;51.970;5.892;2023-03-08T14:04:24;3.90;73.20
47338;DHT22;33069;51.970;5.892;2023-03-08T14:06:53;4.00;73.10
47338;DHT22;33069;51.970;5.892;2023-03-08T14:09:19;4.10;72.00
47338;DHT22;33069;51.970;5.892;2023-03-08T14:12:14;4.00;72.30
47338;DHT22;33069;51.970;5.892;2023-03-08T14:14:39;4.00;72.20
47338;DHT22;33069;51.970;5.892;2023-03-08T14:17:05;4.10;72.50
47338;DHT22;33069;51.970;5.892;2023-03-08T14:19:38;4.20;72.30
47338;DHT22;33069;51.970;5.892;2023-03-08T14:22:14;4.50;71.90
47338;DHT22;33069;51.970;5.892;2023-03-08T14:24:43;4.20;71.70
47338;DHT22;33069;51.970;5.892;2023-03-08T14:29:43;4.00;72.80
47338;DHT22;33069;51.970;5.892;2023-03-08T14:37:25;4.20;72.20
47338;DHT22;33069;51.970;5.892;2023-03-08T14:39:54;4.20;72.10
47338;DHT22;33069;51.970;5.892;2023-03-08T14:42:43;4.20;72.00
47338;DHT22;33069;51.970;5.892;2023-03-08T14:45:28;4.20;73.00
47338;DHT22;33069;51.970;5.892;2023-03-08T14:47:56;4.10;72.70
47338;DHT22;33069;51.970;5.892;2023-03-08T14:50:29;4.10;73.50
47338;DHT22;33069;51.970;5.892;2023-03-08T14:53:00;4.20;74.20
47338;DHT22;33069;51.970;5.892;2023-03-08T14:55:34;4.00;74.00
47338;DHT22;33069;51.970;5.892;2023-03-08T14:58:10;4.10;74.70
47338;DHT22;33069;51.970;5.892;2023-03-08T15:00:51;4.00;74.90
47338;DHT22;33069;51.970;5.892;2023-03-08T15:03:17;4.20;75.50
47338;DHT22;33069;51.970;5.892;2023-03-08T15:05:43;4.00;75.30
47338;DHT22;33069;51.970;5.892;2023-03-08T15:08:12;3.80;75.00
47338;DHT22;33069;51.970;5.892;2023-03-08T15:10:40;3.80;75.70
47338;DHT22;33069;51.970;5.892;2023-03-08T15:13:12;3.60;76.40
47338;DHT22;33069;51.970;5.892;2023-03-08T15:15:37;3.60;77.00
47338;DHT22;33069;51.970;5.892;2023-03-08T15:18:03;3.60;77.40
47338;DHT22;33069;51.970;5.892;2023-03-08T15:20:29;3.70;77.40
47338;DHT22;33069;51.970;5.892;2023-03-08T15:22:58;3.80;77.00
47338;DHT22;33069;51.970;5.892;2023-03-08T15:25:27;3.60;76.80
47338;DHT22;33069;51.970;5.892;2023-03-08T15:27:54;3.50;77.20
47338;DHT22;33069;51.970;5.892;2023-03-08T15:30:25;3.60;77.50
47338;DHT22;33069;51.970;5.892;2023-03-08T15:32:51;3.40;77.60
47338;DHT22;33069;51.970;5.892;2023-03-08T15:35:17;3.60;78.30
47338;DHT22;33069;51.970;5.892;2023-03-08T15:37:44;3.60;78.50
47338;DHT22;33069;51.970;5.892;2023-03-08T15:40:15;3.60;78.50
47338;DHT22;33069;51.970;5.892;2023-03-08T15:42:41;3.60;78.40
47338;DHT22;33069;51.970;5.892;2023-03-08T15:45:08;3.50;78.50
47338;DHT22;33069;51.970;5.892;2023-03-08T15:47:34;3.50;78.60
47338;DHT22;33069;51.970;5.892;2023-03-08T15:50:00;3.30;79.00
47338;DHT22;33069;51.970;5.892;2023-03-08T15:52:29;3.40;79.00
47338;DHT22;33069;51.970;5.892;2023-03-08T15:54:55;3.30;78.90
47338;DHT22;33069;51.970;5.892;2023-03-08T15:57:20;3.20;79.50
47338;DHT22;33069;51.970;5.892;2023-03-08T15:59:46;3.00;80.00
47338;DHT22;33069;51.970;5.892;2023-03-08T16:02:14;2.90;80.60
47338;DHT22;33069;51.970;5.892;2023-03-08T16:04:44;3.10;80.70
47338;DHT22;33069;51.970;5.892;2023-03-08T16:07:15;3.10;81.10
47338;DHT22;33069;51.970;5.892;2023-03-08T16:09:42;3.00;81.30
47338;DHT22;33069;51.970;5.892;2023-03-08T16:12:07;2.80;81.00
47338;DHT22;33069;51.970;5.892;2023-03-08T16:14:34;2.90;81.50
47338;DHT22;33069;51.970;5.892;2023-03-08T16:17:00;2.90;81.90
47338;DHT22;33069;51.970;5.892;2023-03-08T16:19:31;2.80;81.80
47338;DHT22;33069;51.970;5.892;2023-03-08T16:21:57;2.90;82.20
47338;DHT22;33069;51.970;5.892;2023-03-08T16:24:22;2.70;82.30
47338;DHT22;33069;51.970;5.892;2023-03-08T16:26:48;2.80;82.90
47338;DHT22;33069;51.970;5.892;2023-03-08T16:29:14;3.00;83.10
47338;DHT22;33069;51.970;5.892;2023-03-08T16:31:40;2.80;82.90
47338;DHT22;33069;51.970;5.892;2023-03-08T16:34:06;2.80;83.10
47338;DHT22;33069;51.970;5.892;2023-03-08T16:36:32;2.90;83.50
47338;DHT22;33069;51.970;5.892;2023-03-08T16:38:58;2.60;83.40
47338;DHT22;33069;51.970;5.892;2023-03-08T16:41:24;2.70;83.80
47338;DHT22;33069;51.970;5.892;2023-03-08T16:43:51;2.70;83.80
47338;DHT22;33069;51.970;5.892;2023-03-08T16:46:21;2.60;83.80
47338;DHT22;33069;51.970;5.892;2023-03-08T16:48:48;2.70;83.90
47338;DHT22;33069;51.970;5.892;2023-03-08T16:51:15;2.70;83.90
47338;DHT22;33069;51.970;5.892;2023-03-08T16:53:42;2.70;83.80
47338;DHT22;33069;51.970;5.892;2023-03-08T16:56:08;2.50;83.60
47338;DHT22;33069;51.970;5.892;2023-03-08T16:58:35;2.70;84.10
47338;DHT22;33069;51.970;5.892;2023-03-08T17:01:00;2.60;84.00
47338;DHT22;33069;51.970;5.892;2023-03-08T17:03:26;2.50;84.10
47338;DHT22;33069;51.970;5.892;2023-03-08T17:05:52;2.50;84.30
47338;DHT22;33069;51.970;5.892;2023-03-08T17:08:17;2.50;84.60
47338;DHT22;33069;51.970;5.892;2023-03-08T17:10:44;2.60;84.70
47338;DHT22;33069;51.970;5.892;2023-03-08T17:13:10;2.50;84.70
47338;DHT22;33069;51.970;5.892;2023-03-08T17:15:41;2.50;84.70
47338;DHT22;33069;51.970;5.892;2023-03-08T17:18:08;2.40;84.70
47338;DHT22;33069;51.970;5.892;2023-03-08T17:20:38;2.60;85.10
47338;DHT22;33069;51.970;5.892;2023-03-08T17:23:04;2.60;85.00
47338;DHT22;33069;51.970;5.892;2023-03-08T17:25:33;2.70;84.90
47338;DHT22;33069;51.970;5.892;2023-03-08T17:28:00;2.70;84.80